LA HONDA (LAH)

Elevation: 425' · SAN GREGORIO CR basin · Operator: CAL FIRE

Query executed Sunday at 22:54:31   clock

Provisional data, subject to change.
Select a sensor type for a plot of data.

Earlier

Date   /   Time   RAIN     TEMP     REL HUM     FUEL MS     FUEL TP     WIND SP     WIND DR     PEAK WS     PEAK WD     SOLAR R     BAT VOL    
(PDT)INCHES   DEG F   %   %   DEG F   MPH   DEG   MPH   DEG   W/M^2   VOLTS  
04/30/2016 22:00 33.45 52 84 12 47 6 84 7 76 0.00 13.1
04/30/2016 23:00 33.45 56 69 14 46 3 266 8 86 0.00 13.1
05/01/2016 00:00 33.45 56 63 16 46 5 71 7 76 0.00 13.0
05/01/2016 01:00 33.45 63 45 18 49 7 21 11 18 0.00 13.0
05/01/2016 02:00 33.45 63 43 17 50 4 33 12 35 0.00 13.0
05/01/2016 03:00 33.45 55 52 18 45 4 77 7 47 0.00 12.9
05/01/2016 04:00 33.45 52 71 20 44 5 64 7 73 0.00 12.9
05/01/2016 05:00 33.45 51 75 21 43 5 75 7 90 0.00 12.9
05/01/2016 06:00 33.45 49 79 21 43 5 72 7 61 0.00 12.9
05/01/2016 07:00 33.45 49 82 23 44 5 88 7 81 16.00 12.9
05/01/2016 08:00 33.45 59 72 24 52 4 83 7 83 198.00 13.5
05/01/2016 09:00 33.45 71 45 20 66 3 280 6 72 394.00 13.8
05/01/2016 10:00 33.45 72 33 14 78 8 29 14 74 584.00 13.7
05/01/2016 11:00 33.45 75 33 12 82 6 41 12 22 745.00 13.6
05/01/2016 12:00 33.45 78 35 9 90 3 282 11 22 864.00 13.5
05/01/2016 13:00 33.45 76 42 9 90 4 338 11 6 923.00 13.5
05/01/2016 14:00 33.45 78 43 9 98 4 274 10 11 929.00 13.5
05/01/2016 15:00 33.45 77 45 8 98 4 264 9 338 877.00 13.5
05/01/2016 16:00 33.45 76 46 8 94 4 340 9 305 766.00 13.5
05/01/2016 17:00 33.45 75 51 8 91 3 300 10 339 603.00 13.5
05/01/2016 18:00 33.45 71 55 7 76 3 260 8 230 415.00 14.3
05/01/2016 19:00 33.45 64 66 8 59 2 272 6 284 66.00 13.5
05/01/2016 20:00 33.45 59 74 10 52 1 52 4 217 18.00 13.3
05/01/2016 21:00 33.45 58 71 11 50 4 79 8 152 0.00 13.2
05/01/2016 22:00 33.45 55 69 12 48 3 67 10 68 0.00 13.1

Later | Latest

Warning! This data is preliminary and subject to revision.

Show LAH Map | 24 Hours LAH Data | Plot all LAH Sensors | Daily LAH Data | LAH Info